sensor_id;sensor_type;location;lat;lon;timestamp;temperature;humidity
7530;DHT22;3806;52.270;10.544;2024-02-21T00:00:04;9.70;99.90
7530;DHT22;3806;52.270;10.544;2024-02-21T00:02:30;9.60;99.90
7530;DHT22;3806;52.270;10.544;2024-02-21T00:04:56;9.60;99.90
7530;DHT22;3806;52.270;10.544;2024-02-21T00:07:21;9.60;99.90
7530;DHT22;3806;52.270;10.544;2024-02-21T00:09:47;9.60;99.90
7530;DHT22;3806;52.270;10.544;2024-02-21T00:12:12;9.60;99.90
7530;DHT22;3806;52.270;10.544;2024-02-21T00:14:39;9.60;99.90
7530;DHT22;3806;52.270;10.544;2024-02-21T00:17:05;9.70;99.90
7530;DHT22;3806;52.270;10.544;2024-02-21T00:19:31;9.70;99.90
7530;DHT22;3806;52.270;10.544;2024-02-21T00:21:56;9.70;99.90
7530;DHT22;3806;52.270;10.544;2024-02-21T00:24:22;9.70;99.90
7530;DHT22;3806;52.270;10.544;2024-02-21T00:26:47;9.70;99.90
7530;DHT22;3806;52.270;10.544;2024-02-21T00:29:13;9.70;99.90
7530;DHT22;3806;52.270;10.544;2024-02-21T00:31:38;9.70;99.90
7530;DHT22;3806;52.270;10.544;2024-02-21T00:34:04;9.70;99.90
7530;DHT22;3806;52.270;10.544;2024-02-21T00:36:29;9.70;99.90
7530;DHT22;3806;52.270;10.544;2024-02-21T00:38:55;9.60;99.90
7530;DHT22;3806;52.270;10.544;2024-02-21T00:41:20;9.60;99.90
7530;DHT22;3806;52.270;10.544;2024-02-21T00:43:46;9.60;99.90
7530;DHT22;3806;52.270;10.544;2024-02-21T00:46:13;9.60;99.90
7530;DHT22;3806;52.270;10.544;2024-02-21T00:48:39;9.60;99.90
7530;DHT22;3806;52.270;10.544;2024-02-21T00:51:05;9.60;99.90
7530;DHT22;3806;52.270;10.544;2024-02-21T00:53:30;9.60;99.90
7530;DHT22;3806;52.270;10.544;2024-02-21T00:55:55;9.70;99.90
7530;DHT22;3806;52.270;10.544;2024-02-21T00:58:22;9.70;99.90
7530;DHT22;3806;52.270;10.544;2024-02-21T01:00:47;9.70;99.90
7530;DHT22;3806;52.270;10.544;2024-02-21T01:03:13;9.70;99.90
7530;DHT22;3806;52.270;10.544;2024-02-21T01:05:39;9.60;99.90
7530;DHT22;3806;52.270;10.544;2024-02-21T01:08:04;9.60;99.90
7530;DHT22;3806;52.270;10.544;2024-02-21T01:10:30;9.60;99.90
7530;DHT22;3806;52.270;10.544;2024-02-21T01:12:55;9.70;99.90
7530;DHT22;3806;52.270;10.544;2024-02-21T01:15:21;9.60;99.90
7530;DHT22;3806;52.270;10.544;2024-02-21T01:17:47;9.60;99.90
7530;DHT22;3806;52.270;10.544;2024-02-21T01:20:12;9.70;99.90
7530;DHT22;3806;52.270;10.544;2024-02-21T01:22:38;9.60;99.90
7530;DHT22;3806;52.270;10.544;2024-02-21T01:25:04;9.70;99.90
7530;DHT22;3806;52.270;10.544;2024-02-21T01:27:29;9.70;99.90
7530;DHT22;3806;52.270;10.544;2024-02-21T01:29:55;9.70;99.90
7530;DHT22;3806;52.270;10.544;2024-02-21T01:32:21;9.70;99.90
7530;DHT22;3806;52.270;10.544;2024-02-21T01:34:47;9.70;99.90
7530;DHT22;3806;52.270;10.544;2024-02-21T01:37:12;9.70;99.90
7530;DHT22;3806;52.270;10.544;2024-02-21T01:39:38;9.70;99.90
7530;DHT22;3806;52.270;10.544;2024-02-21T01:42:03;9.70;99.90
7530;DHT22;3806;52.270;10.544;2024-02-21T01:44:29;9.70;99.90
7530;DHT22;3806;52.270;10.544;2024-02-21T01:46:54;9.70;99.90
7530;DHT22;3806;52.270;10.544;2024-02-21T01:49:21;9.70;99.90
7530;DHT22;3806;52.270;10.544;2024-02-21T01:51:47;9.70;99.90
7530;DHT22;3806;52.270;10.544;2024-02-21T01:54:14;9.70;99.90
7530;DHT22;3806;52.270;10.544;2024-02-21T01:56:41;9.70;99.90
7530;DHT22;3806;52.270;10.544;2024-02-21T01:59:07;9.70;99.90
7530;DHT22;3806;52.270;10.544;2024-02-21T02:01:33;9.70;99.90
7530;DHT22;3806;52.270;10.544;2024-02-21T02:03:59;9.70;99.90
7530;DHT22;3806;52.270;10.544;2024-02-21T02:06:25;9.70;99.90
7530;DHT22;3806;52.270;10.544;2024-02-21T02:08:50;9.70;99.90
7530;DHT22;3806;52.270;10.544;2024-02-21T02:11:16;9.70;99.90
7530;DHT22;3806;52.270;10.544;2024-02-21T02:13:42;9.70;99.90
7530;DHT22;3806;52.270;10.544;2024-02-21T02:16:07;9.70;99.90
7530;DHT22;3806;52.270;10.544;2024-02-21T02:18:33;9.70;99.90
7530;DHT22;3806;52.270;10.544;2024-02-21T02:20:58;9.70;99.90
7530;DHT22;3806;52.270;10.544;2024-02-21T02:23:31;9.70;99.90
7530;DHT22;3806;52.270;10.544;2024-02-21T02:25:57;9.70;99.90
7530;DHT22;3806;52.270;10.544;2024-02-21T02:28:23;9.70;99.90
7530;DHT22;3806;52.270;10.544;2024-02-21T02:30:48;9.70;99.90
7530;DHT22;3806;52.270;10.544;2024-02-21T02:33:14;9.70;99.90
7530;DHT22;3806;52.270;10.544;2024-02-21T02:35:40;9.70;99.90
7530;DHT22;3806;52.270;10.544;2024-02-21T02:38:06;9.70;99.90
7530;DHT22;3806;52.270;10.544;2024-02-21T02:40:34;9.70;99.90
7530;DHT22;3806;52.270;10.544;2024-02-21T02:43:00;9.70;99.90
7530;DHT22;3806;52.270;10.544;2024-02-21T02:45:25;9.70;99.90
7530;DHT22;3806;52.270;10.544;2024-02-21T02:47:54;9.70;99.90
7530;DHT22;3806;52.270;10.544;2024-02-21T02:50:20;9.70;99.90
7530;DHT22;3806;52.270;10.544;2024-02-21T02:52:46;9.70;99.90
7530;DHT22;3806;52.270;10.544;2024-02-21T02:55:11;9.80;99.90
7530;DHT22;3806;52.270;10.544;2024-02-21T02:57:37;9.80;99.90
7530;DHT22;3806;52.270;10.544;2024-02-21T03:00:03;9.80;99.90
7530;DHT22;3806;52.270;10.544;2024-02-21T03:02:29;9.70;99.90
7530;DHT22;3806;52.270;10.544;2024-02-21T03:04:56;9.80;99.90
7530;DHT22;3806;52.270;10.544;2024-02-21T03:07:21;9.80;99.90
7530;DHT22;3806;52.270;10.544;2024-02-21T03:09:47;9.80;99.90
7530;DHT22;3806;52.270;10.544;2024-02-21T03:12:12;9.80;99.90
7530;DHT22;3806;52.270;10.544;2024-02-21T03:14:44;9.80;99.90
7530;DHT22;3806;52.270;10.544;2024-02-21T03:17:09;9.80;99.90
7530;DHT22;3806;52.270;10.544;2024-02-21T03:19:35;9.80;99.90
7530;DHT22;3806;52.270;10.544;2024-02-21T03:22:00;9.90;99.90
7530;DHT22;3806;52.270;10.544;2024-02-21T03:24:26;9.90;99.90
7530;DHT22;3806;52.270;10.544;2024-02-21T03:26:51;9.90;99.90
7530;DHT22;3806;52.270;10.544;2024-02-21T03:29:17;9.90;99.90
7530;DHT22;3806;52.270;10.544;2024-02-21T03:31:43;9.90;99.90
7530;DHT22;3806;52.270;10.544;2024-02-21T03:34:10;9.90;99.90
7530;DHT22;3806;52.270;10.544;2024-02-21T03:36:36;9.90;99.90
7530;DHT22;3806;52.270;10.544;2024-02-21T03:39:02;9.90;99.90
7530;DHT22;3806;52.270;10.544;2024-02-21T03:41:27;9.90;99.90
7530;DHT22;3806;52.270;10.544;2024-02-21T03:43:53;9.90;99.90
7530;DHT22;3806;52.270;10.544;2024-02-21T03:46:18;9.90;99.90
7530;DHT22;3806;52.270;10.544;2024-02-21T03:48:43;9.90;99.90
7530;DHT22;3806;52.270;10.544;2024-02-21T03:51:09;9.90;99.90
7530;DHT22;3806;52.270;10.544;2024-02-21T03:53:35;9.90;99.90
7530;DHT22;3806;52.270;10.544;2024-02-21T03:56:03;9.90;99.90
7530;DHT22;3806;52.270;10.544;2024-02-21T03:58:33;9.90;99.90
7530;DHT22;3806;52.270;10.544;2024-02-21T04:01:02;9.90;99.90
7530;DHT22;3806;52.270;10.544;2024-02-21T04:03:29;9.90;99.90
7530;DHT22;3806;52.270;10.544;2024-02-21T04:05:54;9.90;99.90
7530;DHT22;3806;52.270;10.544;2024-02-21T04:08:20;9.90;99.90
7530;DHT22;3806;52.270;10.544;2024-02-21T04:10:45;9.90;99.90
7530;DHT22;3806;52.270;10.544;2024-02-21T04:13:11;9.90;99.90
7530;DHT22;3806;52.270;10.544;2024-02-21T04:15:36;9.80;99.90
7530;DHT22;3806;52.270;10.544;2024-02-21T04:18:02;9.80;99.90
7530;DHT22;3806;52.270;10.544;2024-02-21T04:20:28;9.80;99.90
7530;DHT22;3806;52.270;10.544;2024-02-21T04:22:55;9.80;99.90
7530;DHT22;3806;52.270;10.544;2024-02-21T04:25:20;9.80;99.90
7530;DHT22;3806;52.270;10.544;2024-02-21T04:27:46;9.80;99.90
7530;DHT22;3806;52.270;10.544;2024-02-21T04:30:12;9.80;99.90
7530;DHT22;3806;52.270;10.544;2024-02-21T04:32:37;9.90;99.90
7530;DHT22;3806;52.270;10.544;2024-02-21T04:35:03;9.90;99.90
7530;DHT22;3806;52.270;10.544;2024-02-21T04:37:29;9.90;99.90
7530;DHT22;3806;52.270;10.544;2024-02-21T04:39:54;9.90;99.90
7530;DHT22;3806;52.270;10.544;2024-02-21T04:42:20;9.90;99.90
7530;DHT22;3806;52.270;10.544;2024-02-21T04:44:45;9.90;99.90
7530;DHT22;3806;52.270;10.544;2024-02-21T04:47:10;9.90;99.90
7530;DHT22;3806;52.270;10.544;2024-02-21T04:49:36;9.90;99.90
7530;DHT22;3806;52.270;10.544;2024-02-21T04:52:02;9.90;99.90
7530;DHT22;3806;52.270;10.544;2024-02-21T04:54:27;9.90;99.90
7530;DHT22;3806;52.270;10.544;2024-02-21T04:56:53;9.90;99.90
7530;DHT22;3806;52.270;10.544;2024-02-21T04:59:18;9.90;99.90
7530;DHT22;3806;52.270;10.544;2024-02-21T05:01:44;9.90;99.90
7530;DHT22;3806;52.270;10.544;2024-02-21T05:04:09;9.90;99.90
7530;DHT22;3806;52.270;10.544;2024-02-21T05:06:39;10.00;99.90
7530;DHT22;3806;52.270;10.544;2024-02-21T05:09:05;9.90;99.90
7530;DHT22;3806;52.270;10.544;2024-02-21T05:11:31;10.00;99.90
7530;DHT22;3806;52.270;10.544;2024-02-21T05:13:56;9.90;99.90
7530;DHT22;3806;52.270;10.544;2024-02-21T05:16:22;10.00;99.90
7530;DHT22;3806;52.270;10.544;2024-02-21T05:18:47;9.90;99.90
7530;DHT22;3806;52.270;10.544;2024-02-21T05:21:13;10.00;99.90
7530;DHT22;3806;52.270;10.544;2024-02-21T05:23:38;10.00;99.90
7530;DHT22;3806;52.270;10.544;2024-02-21T05:26:07;10.00;99.90
7530;DHT22;3806;52.270;10.544;2024-02-21T05:28:33;10.00;99.90
7530;DHT22;3806;52.270;10.544;2024-02-21T05:30:58;10.00;99.90
7530;DHT22;3806;52.270;10.544;2024-02-21T05:33:24;10.00;99.90
7530;DHT22;3806;52.270;10.544;2024-02-21T05:35:51;10.00;99.90
7530;DHT22;3806;52.270;10.544;2024-02-21T05:38:17;10.00;99.90
7530;DHT22;3806;52.270;10.544;2024-02-21T05:40:44;10.00;99.90
7530;DHT22;3806;52.270;10.544;2024-02-21T05:43:10;10.00;99.90
7530;DHT22;3806;52.270;10.544;2024-02-21T05:45:36;10.00;99.90
7530;DHT22;3806;52.270;10.544;2024-02-21T05:48:02;10.00;99.90
7530;DHT22;3806;52.270;10.544;2024-02-21T05:50:28;10.00;99.90
7530;DHT22;3806;52.270;10.544;2024-02-21T05:52:57;10.00;99.90
7530;DHT22;3806;52.270;10.544;2024-02-21T05:55:22;10.00;99.90
7530;DHT22;3806;52.270;10.544;2024-02-21T05:57:48;10.00;99.90
7530;DHT22;3806;52.270;10.544;2024-02-21T06:00:14;10.00;99.90
7530;DHT22;3806;52.270;10.544;2024-02-21T06:02:41;10.10;99.90
7530;DHT22;3806;52.270;10.544;2024-02-21T06:05:07;10.10;99.90
7530;DHT22;3806;52.270;10.544;2024-02-21T06:07:36;10.00;99.90
7530;DHT22;3806;52.270;10.544;2024-02-21T06:10:02;10.10;99.90
7530;DHT22;3806;52.270;10.544;2024-02-21T06:12:28;10.10;99.90
7530;DHT22;3806;52.270;10.544;2024-02-21T06:14:54;10.10;99.90
7530;DHT22;3806;52.270;10.544;2024-02-21T06:17:19;10.10;99.90
7530;DHT22;3806;52.270;10.544;2024-02-21T06:19:45;10.10;99.90
7530;DHT22;3806;52.270;10.544;2024-02-21T06:22:10;10.10;99.90
7530;DHT22;3806;52.270;10.544;2024-02-21T06:24:36;10.10;99.90
7530;DHT22;3806;52.270;10.544;2024-02-21T06:27:05;10.00;99.90
7530;DHT22;3806;52.270;10.544;2024-02-21T06:29:31;10.00;99.90
7530;DHT22;3806;52.270;10.544;2024-02-21T06:31:57;10.10;99.90
7530;DHT22;3806;52.270;10.544;2024-02-21T06:34:23;10.00;99.90
7530;DHT22;3806;52.270;10.544;2024-02-21T06:36:49;10.00;99.90
7530;DHT22;3806;52.270;10.544;2024-02-21T06:39:15;10.00;99.90
7530;DHT22;3806;52.270;10.544;2024-02-21T06:41:40;10.00;99.90
7530;DHT22;3806;52.270;10.544;2024-02-21T06:44:06;10.00;99.90
7530;DHT22;3806;52.270;10.544;2024-02-21T06:46:31;10.10;99.90
7530;DHT22;3806;52.270;10.544;2024-02-21T06:48:59;10.10;99.90
7530;DHT22;3806;52.270;10.544;2024-02-21T06:51:26;10.10;99.90
7530;DHT22;3806;52.270;10.544;2024-02-21T06:53:52;10.10;99.90
7530;DHT22;3806;52.270;10.544;2024-02-21T06:56:17;10.10;99.90
7530;DHT22;3806;52.270;10.544;2024-02-21T06:58:43;10.10;99.90
7530;DHT22;3806;52.270;10.544;2024-02-21T07:01:09;10.10;99.90
7530;DHT22;3806;52.270;10.544;2024-02-21T07:03:35;10.20;99.90
7530;DHT22;3806;52.270;10.544;2024-02-21T07:06:01;10.20;99.90
7530;DHT22;3806;52.270;10.544;2024-02-21T07:08:26;10.20;99.90
7530;DHT22;3806;52.270;10.544;2024-02-21T07:10:52;10.20;99.90
7530;DHT22;3806;52.270;10.544;2024-02-21T07:13:18;10.20;99.90
7530;DHT22;3806;52.270;10.544;2024-02-21T07:15:43;10.20;99.90
7530;DHT22;3806;52.270;10.544;2024-02-21T07:18:09;10.20;99.90
7530;DHT22;3806;52.270;10.544;2024-02-21T07:20:34;10.20;99.90
7530;DHT22;3806;52.270;10.544;2024-02-21T07:23:03;10.20;99.90
7530;DHT22;3806;52.270;10.544;2024-02-21T07:25:28;10.20;99.90
7530;DHT22;3806;52.270;10.544;2024-02-21T07:27:54;10.20;99.90
7530;DHT22;3806;52.270;10.544;2024-02-21T07:30:20;10.20;99.90
7530;DHT22;3806;52.270;10.544;2024-02-21T07:32:45;10.20;99.90
7530;DHT22;3806;52.270;10.544;2024-02-21T07:35:14;10.20;99.90
7530;DHT22;3806;52.270;10.544;2024-02-21T07:37:39;10.20;99.90
7530;DHT22;3806;52.270;10.544;2024-02-21T07:40:06;10.20;99.90
7530;DHT22;3806;52.270;10.544;2024-02-21T07:42:32;10.20;99.90
7530;DHT22;3806;52.270;10.544;2024-02-21T07:44:58;10.20;99.90
7530;DHT22;3806;52.270;10.544;2024-02-21T07:47:23;10.20;99.90
7530;DHT22;3806;52.270;10.544;2024-02-21T07:49:49;10.30;99.90
7530;DHT22;3806;52.270;10.544;2024-02-21T07:52:15;10.20;99.90
7530;DHT22;3806;52.270;10.544;2024-02-21T07:54:41;10.30;99.90
7530;DHT22;3806;52.270;10.544;2024-02-21T07:57:07;10.30;99.90
7530;DHT22;3806;52.270;10.544;2024-02-21T07:59:33;10.30;99.90
7530;DHT22;3806;52.270;10.544;2024-02-21T08:01:58;10.30;99.90
7530;DHT22;3806;52.270;10.544;2024-02-21T08:04:24;10.30;99.90
7530;DHT22;3806;52.270;10.544;2024-02-21T08:06:53;10.40;99.90
7530;DHT22;3806;52.270;10.544;2024-02-21T08:09:19;10.50;99.90
7530;DHT22;3806;52.270;10.544;2024-02-21T08:11:44;10.50;99.90
7530;DHT22;3806;52.270;10.544;2024-02-21T08:14:10;10.60;99.90
7530;DHT22;3806;52.270;10.544;2024-02-21T08:16:35;10.70;99.90
7530;DHT22;3806;52.270;10.544;2024-02-21T08:19:01;10.80;99.90
7530;DHT22;3806;52.270;10.544;2024-02-21T08:21:28;10.80;99.90
7530;DHT22;3806;52.270;10.544;2024-02-21T08:23:54;10.80;99.90
7530;DHT22;3806;52.270;10.544;2024-02-21T08:26:20;10.80;99.90
7530;DHT22;3806;52.270;10.544;2024-02-21T08:28:45;10.80;99.90
7530;DHT22;3806;52.270;10.544;2024-02-21T08:31:11;10.80;99.90
7530;DHT22;3806;52.270;10.544;2024-02-21T08:33:36;10.90;99.90
7530;DHT22;3806;52.270;10.544;2024-02-21T08:36:01;10.90;99.90
7530;DHT22;3806;52.270;10.544;2024-02-21T08:38:28;10.90;99.90
7530;DHT22;3806;52.270;10.544;2024-02-21T08:40:54;10.90;99.90
7530;DHT22;3806;52.270;10.544;2024-02-21T08:43:19;10.90;99.90
7530;DHT22;3806;52.270;10.544;2024-02-21T08:45:44;10.90;99.90
7530;DHT22;3806;52.270;10.544;2024-02-21T08:48:10;11.00;99.90
7530;DHT22;3806;52.270;10.544;2024-02-21T08:50:35;11.00;99.90
7530;DHT22;3806;52.270;10.544;2024-02-21T08:53:01;11.00;99.90
7530;DHT22;3806;52.270;10.544;2024-02-21T08:55:27;11.00;99.90
7530;DHT22;3806;52.270;10.544;2024-02-21T08:57:52;11.10;99.90
7530;DHT22;3806;52.270;10.544;2024-02-21T09:00:18;11.10;99.90
7530;DHT22;3806;52.270;10.544;2024-02-21T09:02:46;11.10;99.90
7530;DHT22;3806;52.270;10.544;2024-02-21T09:05:12;11.20;99.90
7530;DHT22;3806;52.270;10.544;2024-02-21T09:07:37;11.20;99.90
7530;DHT22;3806;52.270;10.544;2024-02-21T09:10:03;11.20;99.90
7530;DHT22;3806;52.270;10.544;2024-02-21T09:12:29;11.20;99.90
7530;DHT22;3806;52.270;10.544;2024-02-21T09:14:54;11.30;99.90
7530;DHT22;3806;52.270;10.544;2024-02-21T09:17:20;11.40;99.90
7530;DHT22;3806;52.270;10.544;2024-02-21T09:19:47;11.40;99.90
7530;DHT22;3806;52.270;10.544;2024-02-21T09:22:13;11.40;99.90
7530;DHT22;3806;52.270;10.544;2024-02-21T09:24:38;11.60;99.90
7530;DHT22;3806;52.270;10.544;2024-02-21T09:27:04;11.60;99.90
7530;DHT22;3806;52.270;10.544;2024-02-21T09:29:31;11.70;99.90
7530;DHT22;3806;52.270;10.544;2024-02-21T09:31:58;11.80;99.90
7530;DHT22;3806;52.270;10.544;2024-02-21T09:34:24;12.00;99.90
7530;DHT22;3806;52.270;10.544;2024-02-21T09:36:49;12.10;99.90
7530;DHT22;3806;52.270;10.544;2024-02-21T09:39:15;12.20;99.90
7530;DHT22;3806;52.270;10.544;2024-02-21T09:41:46;12.40;99.90
7530;DHT22;3806;52.270;10.544;2024-02-21T09:44:13;12.40;99.90
7530;DHT22;3806;52.270;10.544;2024-02-21T09:47:02;12.50;99.90
7530;DHT22;3806;52.270;10.544;2024-02-21T09:49:32;12.50;99.90
7530;DHT22;3806;52.270;10.544;2024-02-21T09:52:00;12.60;99.70
7530;DHT22;3806;52.270;10.544;2024-02-21T09:54:28;12.60;99.60
7530;DHT22;3806;52.270;10.544;2024-02-21T09:56:54;12.80;99.20
7530;DHT22;3806;52.270;10.544;2024-02-21T09:59:20;13.00;98.90
7530;DHT22;3806;52.270;10.544;2024-02-21T10:01:46;13.20;98.20
7530;DHT22;3806;52.270;10.544;2024-02-21T10:04:15;13.50;96.70
7530;DHT22;3806;52.270;10.544;2024-02-21T10:06:41;13.70;96.00
7530;DHT22;3806;52.270;10.544;2024-02-21T10:09:07;14.00;94.80
7530;DHT22;3806;52.270;10.544;2024-02-21T10:11:32;14.20;93.50
7530;DHT22;3806;52.270;10.544;2024-02-21T10:14:07;14.70;93.10
7530;DHT22;3806;52.270;10.544;2024-02-21T10:16:33;16.00;89.70
7530;DHT22;3806;52.270;10.544;2024-02-21T10:18:59;17.50;81.50
7530;DHT22;3806;52.270;10.544;2024-02-21T10:21:25;18.70;71.20
7530;DHT22;3806;52.270;10.544;2024-02-21T10:23:51;18.80;65.60
7530;DHT22;3806;52.270;10.544;2024-02-21T10:26:20;18.30;63.80
7530;DHT22;3806;52.270;10.544;2024-02-21T10:28:49;17.50;65.50
7530;DHT22;3806;52.270;10.544;2024-02-21T10:31:25;16.50;67.50
7530;DHT22;3806;52.270;10.544;2024-02-21T10:34:08;15.70;71.30
7530;DHT22;3806;52.270;10.544;2024-02-21T10:36:34;14.90;75.80
7530;DHT22;3806;52.270;10.544;2024-02-21T10:38:59;14.40;80.10
7530;DHT22;3806;52.270;10.544;2024-02-21T10:41:25;14.00;83.80
7530;DHT22;3806;52.270;10.544;2024-02-21T10:43:54;13.70;87.00
7530;DHT22;3806;52.270;10.544;2024-02-21T10:46:21;13.50;89.80
7530;DHT22;3806;52.270;10.544;2024-02-21T10:48:48;13.20;90.90
7530;DHT22;3806;52.270;10.544;2024-02-21T10:51:18;13.10;91.40
7530;DHT22;3806;52.270;10.544;2024-02-21T10:54:39;13.00;92.00
7530;DHT22;3806;52.270;10.544;2024-02-21T10:57:06;12.90;92.70
7530;DHT22;3806;52.270;10.544;2024-02-21T10:59:32;12.90;93.00
7530;DHT22;3806;52.270;10.544;2024-02-21T11:01:58;12.90;92.90
7530;DHT22;3806;52.270;10.544;2024-02-21T11:04:25;12.90;92.90
7530;DHT22;3806;52.270;10.544;2024-02-21T11:06:52;13.00;93.10
7530;DHT22;3806;52.270;10.544;2024-02-21T11:09:17;13.10;92.70
7530;DHT22;3806;52.270;10.544;2024-02-21T11:11:44;13.10;92.30
7530;DHT22;3806;52.270;10.544;2024-02-21T11:14:20;13.20;91.90
7530;DHT22;3806;52.270;10.544;2024-02-21T11:16:46;13.20;91.50
7530;DHT22;3806;52.270;10.544;2024-02-21T11:19:26;13.60;91.60
7530;DHT22;3806;52.270;10.544;2024-02-21T11:21:52;14.10;90.30
7530;DHT22;3806;52.270;10.544;2024-02-21T11:24:32;14.20;89.20
7530;DHT22;3806;52.270;10.544;2024-02-21T11:29:54;14.80;84.00
7530;DHT22;3806;52.270;10.544;2024-02-21T11:32:20;15.00;83.00
7530;DHT22;3806;52.270;10.544;2024-02-21T11:34:59;15.20;81.80
7530;DHT22;3806;52.270;10.544;2024-02-21T11:37:27;15.80;78.30
7530;DHT22;3806;52.270;10.544;2024-02-21T11:39:54;16.60;76.70
7530;DHT22;3806;52.270;10.544;2024-02-21T11:42:20;17.30;71.60
7530;DHT22;3806;52.270;10.544;2024-02-21T11:44:46;17.50;68.40
7530;DHT22;3806;52.270;10.544;2024-02-21T11:47:11;17.50;67.10
7530;DHT22;3806;52.270;10.544;2024-02-21T11:49:45;17.50;66.10
7530;DHT22;3806;52.270;10.544;2024-02-21T11:52:11;17.30;66.00
7530;DHT22;3806;52.270;10.544;2024-02-21T11:54:37;17.20;65.40
7530;DHT22;3806;52.270;10.544;2024-02-21T11:57:02;16.90;65.50
7530;DHT22;3806;52.270;10.544;2024-02-21T11:59:33;16.40;66.10
7530;DHT22;3806;52.270;10.544;2024-02-21T12:01:59;16.10;67.50
7530;DHT22;3806;52.270;10.544;2024-02-21T12:04:25;15.90;68.30
7530;DHT22;3806;52.270;10.544;2024-02-21T12:06:52;15.70;69.30
7530;DHT22;3806;52.270;10.544;2024-02-21T12:09:18;15.70;69.10
7530;DHT22;3806;52.270;10.544;2024-02-21T12:11:44;15.60;69.50
7530;DHT22;3806;52.270;10.544;2024-02-21T12:14:10;15.60;69.80
7530;DHT22;3806;52.270;10.544;2024-02-21T12:16:36;15.50;68.90
7530;DHT22;3806;52.270;10.544;2024-02-21T12:19:04;15.40;69.80
7530;DHT22;3806;52.270;10.544;2024-02-21T12:21:31;15.20;70.20
7530;DHT22;3806;52.270;10.544;2024-02-21T12:23:58;15.10;70.70
7530;DHT22;3806;52.270;10.544;2024-02-21T12:26:24;15.00;71.00
7530;DHT22;3806;52.270;10.544;2024-02-21T12:28:50;14.90;70.60
7530;DHT22;3806;52.270;10.544;2024-02-21T12:31:16;14.80;71.70
7530;DHT22;3806;52.270;10.544;2024-02-21T12:33:43;14.80;72.10
7530;DHT22;3806;52.270;10.544;2024-02-21T12:36:08;14.70;71.80
7530;DHT22;3806;52.270;10.544;2024-02-21T12:38:37;14.80;72.40
7530;DHT22;3806;52.270;10.544;2024-02-21T12:41:03;14.90;72.00
7530;DHT22;3806;52.270;10.544;2024-02-21T12:43:28;14.90;72.00
7530;DHT22;3806;52.270;10.544;2024-02-21T12:45:54;14.90;71.90
7530;DHT22;3806;52.270;10.544;2024-02-21T12:48:19;14.90;72.30
7530;DHT22;3806;52.270;10.544;2024-02-21T12:50:49;14.80;72.10
7530;DHT22;3806;52.270;10.544;2024-02-21T12:53:19;14.60;72.80
7530;DHT22;3806;52.270;10.544;2024-02-21T12:55:49;14.50;72.80
7530;DHT22;3806;52.270;10.544;2024-02-21T12:58:15;14.30;73.10
7530;DHT22;3806;52.270;10.544;2024-02-21T13:00:41;14.00;74.10
7530;DHT22;3806;52.270;10.544;2024-02-21T13:03:07;13.90;75.10
7530;DHT22;3806;52.270;10.544;2024-02-21T13:05:32;13.70;75.60
7530;DHT22;3806;52.270;10.544;2024-02-21T13:07:58;13.70;76.10
7530;DHT22;3806;52.270;10.544;2024-02-21T13:10:24;13.60;76.50
7530;DHT22;3806;52.270;10.544;2024-02-21T13:12:50;13.60;76.70
7530;DHT22;3806;52.270;10.544;2024-02-21T13:15:16;13.70;77.10
7530;DHT22;3806;52.270;10.544;2024-02-21T13:17:43;13.80;77.10
7530;DHT22;3806;52.270;10.544;2024-02-21T13:20:10;14.00;76.80
7530;DHT22;3806;52.270;10.544;2024-02-21T13:22:36;14.20;76.20
7530;DHT22;3806;52.270;10.544;2024-02-21T13:25:02;14.30;76.30
7530;DHT22;3806;52.270;10.544;2024-02-21T13:27:27;14.60;75.80
7530;DHT22;3806;52.270;10.544;2024-02-21T13:29:53;14.80;74.90
7530;DHT22;3806;52.270;10.544;2024-02-21T13:32:18;15.00;73.70
7530;DHT22;3806;52.270;10.544;2024-02-21T13:34:44;15.10;73.30
7530;DHT22;3806;52.270;10.544;2024-02-21T13:37:09;15.20;72.50
7530;DHT22;3806;52.270;10.544;2024-02-21T13:39:35;15.30;72.10
7530;DHT22;3806;52.270;10.544;2024-02-21T13:42:01;15.40;71.80
7530;DHT22;3806;52.270;10.544;2024-02-21T13:44:27;15.50;72.00
7530;DHT22;3806;52.270;10.544;2024-02-21T13:46:53;15.50;70.70
7530;DHT22;3806;52.270;10.544;2024-02-21T13:49:18;15.30;71.00
7530;DHT22;3806;52.270;10.544;2024-02-21T13:51:44;15.10;71.60
7530;DHT22;3806;52.270;10.544;2024-02-21T13:54:10;14.80;72.90
7530;DHT22;3806;52.270;10.544;2024-02-21T13:56:37;14.70;74.10
7530;DHT22;3806;52.270;10.544;2024-02-21T13:59:02;14.70;74.80
7530;DHT22;3806;52.270;10.544;2024-02-21T14:01:28;14.60;75.70
7530;DHT22;3806;52.270;10.544;2024-02-21T14:03:54;14.40;76.00
7530;DHT22;3806;52.270;10.544;2024-02-21T14:06:19;14.20;76.70
7530;DHT22;3806;52.270;10.544;2024-02-21T14:08:45;13.90;78.10
7530;DHT22;3806;52.270;10.544;2024-02-21T14:11:11;13.80;79.10
7530;DHT22;3806;52.270;10.544;2024-02-21T14:13:36;13.70;80.00
7530;DHT22;3806;52.270;10.544;2024-02-21T14:16:02;13.60;81.10
7530;DHT22;3806;52.270;10.544;2024-02-21T14:18:28;13.60;81.80
7530;DHT22;3806;52.270;10.544;2024-02-21T14:20:53;13.40;82.50
7530;DHT22;3806;52.270;10.544;2024-02-21T14:23:19;13.30;83.80
7530;DHT22;3806;52.270;10.544;2024-02-21T14:25:44;13.30;84.60
7530;DHT22;3806;52.270;10.544;2024-02-21T14:28:10;13.30;85.10
7530;DHT22;3806;52.270;10.544;2024-02-21T14:30:35;13.20;85.90
7530;DHT22;3806;52.270;10.544;2024-02-21T14:33:01;13.20;86.60
7530;DHT22;3806;52.270;10.544;2024-02-21T14:35:26;13.20;86.30
7530;DHT22;3806;52.270;10.544;2024-02-21T14:37:52;13.20;86.40
7530;DHT22;3806;52.270;10.544;2024-02-21T14:40:22;13.20;86.90
7530;DHT22;3806;52.270;10.544;2024-02-21T14:42:48;13.10;88.30
7530;DHT22;3806;52.270;10.544;2024-02-21T14:45:13;13.20;89.60
7530;DHT22;3806;52.270;10.544;2024-02-21T14:47:39;13.10;90.30
7530;DHT22;3806;52.270;10.544;2024-02-21T14:50:05;13.00;90.80
7530;DHT22;3806;52.270;10.544;2024-02-21T14:52:31;12.90;91.20
7530;DHT22;3806;52.270;10.544;2024-02-21T14:54:58;12.80;91.70
7530;DHT22;3806;52.270;10.544;2024-02-21T14:57:23;12.70;92.00
7530;DHT22;3806;52.270;10.544;2024-02-21T14:59:50;12.60;92.40
7530;DHT22;3806;52.270;10.544;2024-02-21T15:02:24;12.60;92.90
7530;DHT22;3806;52.270;10.544;2024-02-21T15:04:50;12.50;93.20
7530;DHT22;3806;52.270;10.544;2024-02-21T15:07:21;12.50;93.70
7530;DHT22;3806;52.270;10.544;2024-02-21T15:09:50;12.40;94.10
7530;DHT22;3806;52.270;10.544;2024-02-21T15:12:16;12.40;94.30
7530;DHT22;3806;52.270;10.544;2024-02-21T15:14:41;12.40;94.60
7530;DHT22;3806;52.270;10.544;2024-02-21T15:17:09;12.40;94.80
7530;DHT22;3806;52.270;10.544;2024-02-21T15:19:35;12.40;94.90
7530;DHT22;3806;52.270;10.544;2024-02-21T15:22:02;12.30;95.00
7530;DHT22;3806;52.270;10.544;2024-02-21T15:24:28;12.20;95.50
7530;DHT22;3806;52.270;10.544;2024-02-21T15:26:53;12.10;95.70
7530;DHT22;3806;52.270;10.544;2024-02-21T15:29:19;12.10;95.70
7530;DHT22;3806;52.270;10.544;2024-02-21T15:31:45;12.00;96.00
7530;DHT22;3806;52.270;10.544;2024-02-21T15:34:13;11.90;96.30
7530;DHT22;3806;52.270;10.544;2024-02-21T15:36:38;11.90;96.90
7530;DHT22;3806;52.270;10.544;2024-02-21T15:39:04;11.80;97.20
7530;DHT22;3806;52.270;10.544;2024-02-21T15:41:30;11.80;97.60
7530;DHT22;3806;52.270;10.544;2024-02-21T15:43:55;11.80;97.90
7530;DHT22;3806;52.270;10.544;2024-02-21T15:46:24;11.80;97.90
7530;DHT22;3806;52.270;10.544;2024-02-21T15:48:49;11.70;97.90